Time;durP1;ratioP1;P1;durP2;ratioP2;P2;SDS_P1;SDS_P2;PMS_P1;PMS_P2;Temp;Humidity;BMP_temperature;BMP_pressure;BME280_temperature;BME280_humidity;BME280_pressure;Samples;Min_cycle;Max_cycle;Signal;HPM_P1;HPM_P2
2022/06/14 00:00:55;;;;;;;8.43;3.05;;;16.90;81.60;;;;;;5094439;28;20035;-68
2022/06/14 00:03:32;;;;;;;5.88;2.08;;;16.90;81.50;;;;;;5094705;28;20461;-66
2022/06/14 00:06:03;;;;;;;5.82;2.10;;;16.90;81.50;;;;;;5075744;28;20027;-67
2022/06/14 00:08:29;;;;;;;7.78;2.45;;;16.90;81.80;;;;;;5094499;28;20376;-66
2022/06/14 00:10:57;;;;;;;5.88;2.17;;;16.90;81.90;;;;;;5075895;28;20020;-65
2022/06/14 00:13:23;;;;;;;7.95;2.40;;;16.90;82.10;;;;;;5075710;28;20036;-67
2022/06/14 00:15:50;;;;;;;5.28;2.40;;;16.90;82.20;;;;;;5093910;28;20031;-66
2022/06/14 00:18:16;;;;;;;;;;;16.80;82.20;;;;;;5094301;28;20081;-67
2022/06/14 00:20:43;;;;;;;7.22;2.88;;;16.80;82.50;;;;;;5093754;28;19908;-66
2022/06/14 00:23:09;;;;;;;5.65;2.50;;;16.80;82.50;;;;;;5093718;28;20031;-68
2022/06/14 00:25:43;;;;;;;7.38;2.58;;;16.80;82.80;;;;;;5075545;28;20111;-67
2022/06/14 00:28:12;;;;;;;7.50;2.70;;;16.70;83.00;;;;;;5094010;28;20024;-66
2022/06/14 00:30:39;;;;;;;5.80;2.40;;;16.70;83.20;;;;;;5092945;28;20016;-66
2022/06/14 00:33:05;;;;;;;6.05;2.60;;;16.70;83.20;;;;;;5093591;28;20114;-68
2022/06/14 00:35:31;;;;;;;7.85;2.42;;;16.70;83.30;;;;;;5094957;28;20070;-66
2022/06/14 00:37:56;;;;;;;5.55;2.58;;;16.70;83.60;;;;;;5094242;28;20039;-66
2022/06/14 00:40:30;;;;;;;9.05;3.05;;;16.70;83.60;;;;;;5093706;28;20024;-66
2022/06/14 00:42:56;;;;;;;5.07;2.17;;;16.60;83.90;;;;;;5094139;28;20035;-67
2022/06/14 00:45:22;;;;;;;5.57;2.40;;;16.60;84.10;;;;;;5093763;28;20020;-66
2022/06/14 00:47:57;;;;;;;6.57;2.60;;;16.50;84.10;;;;;;5093349;28;20091;-67
2022/06/14 00:50:36;;;;;;;8.15;2.40;;;16.50;84.30;;;;;;5075783;28;20024;-67
2022/06/14 00:53:12;;;;;;;9.23;3.08;;;16.50;84.60;;;;;;5075542;28;20020;-66
2022/06/14 00:55:44;;;;;;;6.45;2.88;;;16.50;84.80;;;;;;5075298;28;20031;-67
2022/06/14 00:58:18;;;;;;;7.53;2.90;;;16.60;85.10;;;;;;5093571;28;20028;-66
2022/06/14 01:01:06;;;;;;;7.53;2.55;;;16.60;85.40;;;;;;5093743;28;20020;-66
2022/06/14 01:03:39;;;;;;;8.63;3.00;;;16.60;85.80;;;;;;5093690;28;20051;-67
2022/06/14 01:06:32;;;;;;;9.75;3.00;;;16.70;86.20;;;;;;5092963;28;20031;-67
2022/06/14 01:09:06;;;;;;;7.65;2.70;;;16.70;86.30;;;;;;5074854;28;20024;-67
2022/06/14 01:11:31;;;;;;;7.13;3.03;;;16.80;86.40;;;;;;5093231;28;20028;-67
2022/06/14 01:13:59;;;;;;;4.97;2.77;;;16.80;87.20;;;;;;5093263;28;20050;-67
2022/06/14 01:16:24;;;;;;;4.00;2.42;;;16.70;87.80;;;;;;5093841;28;20024;-67
2022/06/14 01:18:50;;;;;;;6.28;2.95;;;16.70;88.50;;;;;;5093606;28;20469;-67
2022/06/14 01:21:16;;;;;;;8.35;2.80;;;16.60;89.10;;;;;;5093251;28;20043;-67
2022/06/14 01:23:42;;;;;;;7.32;2.95;;;16.60;89.80;;;;;;5092864;28;20032;-67
2022/06/14 01:26:11;;;;;;;;;;;16.60;90.10;;;;;;5093824;28;20477;-65
2022/06/14 01:28:39;;;;;;;6.07;2.65;;;16.60;90.30;;;;;;5093143;28;19908;-65
2022/06/14 01:31:05;;;;;;;7.60;3.05;;;16.60;90.50;;;;;;5092829;28;20043;-65
2022/06/14 01:33:39;;;;;;;8.68;2.72;;;16.60;90.80;;;;;;5093202;28;20081;-65
2022/06/14 01:36:09;;;;;;;6.22;3.28;;;16.60;91.00;;;;;;5093111;28;20485;-65
2022/06/14 01:38:35;;;;;;;4.72;2.80;;;16.50;91.40;;;;;;5093018;28;20546;-66
2022/06/14 01:41:43;;;;;;;7.90;2.88;;;16.50;91.40;;;;;;5094944;28;20017;-65
2022/06/14 01:44:20;;;;;;;7.80;3.17;;;16.50;91.50;;;;;;5097168;28;20504;-65
2022/06/14 01:47:04;;;;;;;;;;;16.40;92.00;;;;;;5097267;28;20024;-65
2022/06/14 01:52:57;;;;;;;9.30;3.00;;;16.40;92.70;;;;;;5096814;28;20051;-65
2022/06/14 01:55:39;;;;;;;7.72;2.80;;;16.40;93.10;;;;;;5096751;28;20046;-65
2022/06/14 01:58:33;;;;;;;6.57;2.97;;;16.30;93.50;;;;;;5096307;28;20119;-65
2022/06/14 02:01:17;;;;;;;6.18;2.92;;;16.30;94.20;;;;;;5083050;28;20040;-65
2022/06/14 02:06:45;;;;;;;8.07;3.88;;;16.10;95.60;;;;;;5096086;28;20077;-65
2022/06/14 02:09:10;;;;;;;;;;;16.00;96.30;;;;;;5096886;28;20065;-65
2022/06/14 02:11:36;;;;;;;11.00;3.00;;;15.90;96.80;;;;;;5077950;28;19912;-66
2022/06/14 02:14:20;;;;;;;7.88;2.90;;;15.90;97.40;;;;;;5096226;28;20073;-64
2022/06/14 02:17:07;;;;;;;10.85;3.20;;;15.80;98.40;;;;;;5096000;28;20058;-64
2022/06/14 02:19:45;;;;;;;7.10;3.30;;;15.70;99.90;;;;;;5096363;28;20020;-65
2022/06/14 02:22:17;;;;;;;6.68;3.28;;;15.50;99.90;;;;;;5095818;28;20465;-64
2022/06/14 02:24:51;;;;;;;7.93;3.60;;;15.50;99.90;;;;;;5096237;28;20024;-64
2022/06/14 02:27:48;;;;;;;7.28;3.35;;;15.40;99.90;;;;;;5096593;28;20028;-65
2022/06/14 02:30:24;;;;;;;7.32;3.20;;;15.40;99.90;;;;;;5095737;28;20135;-65
2022/06/14 02:33:05;;;;;;;4.13;2.93;;;15.40;99.90;;;;;;5095784;28;20063;-65
2022/06/14 02:35:51;;;;;;;6.80;3.42;;;15.30;99.90;;;;;;5095675;28;20043;-65
2022/06/14 02:38:38;;;;;;;8.95;3.65;;;15.30;99.90;;;;;;5095794;28;20137;-65
2022/06/14 02:41:19;;;;;;;7.05;3.28;;;15.20;99.90;;;;;;5096140;28;20455;-65
2022/06/14 02:44:00;;;;;;;8.15;3.63;;;15.10;99.90;;;;;;5095525;28;20028;-65
2022/06/14 02:46:51;;;;;;;8.93;3.55;;;15.10;99.90;;;;;;5095699;28;20391;-65
2022/06/14 02:49:20;;;;;;;6.38;2.92;;;15.10;99.90;;;;;;5095613;28;20062;-65
2022/06/14 02:52:11;;;;;;;6.82;3.08;;;15.00;99.90;;;;;;5095106;28;20079;-65
2022/06/14 02:54:43;;;;;;;9.60;3.03;;;15.10;99.90;;;;;;5095509;28;20476;-65
2022/06/14 02:57:17;;;;;;;6.80;3.13;;;15.10;99.90;;;;;;5095257;28;20024;-64
2022/06/14 03:00:10;;;;;;;9.07;3.38;;;15.20;99.90;;;;;;5095615;28;20017;-65
2022/06/14 03:02:57;;;;;;;7.47;3.13;;;15.20;99.90;;;;;;5095438;28;20448;-65
2022/06/14 03:05:54;;;;;;;10.50;3.28;;;15.30;99.90;;;;;;5095158;28;20525;-65
2022/06/14 03:08:28;;;;;;;6.15;3.30;;;15.20;99.90;;;;;;5077085;28;20050;-65
2022/06/14 03:11:30;;;;;;;7.18;3.30;;;15.30;99.90;;;;;;5095666;28;20481;-65
2022/06/14 03:14:19;;;;;;;5.03;2.90;;;15.30;99.90;;;;;;5092004;28;20028;-65
2022/06/14 03:16:54;;;;;;;7.15;2.85;;;15.30;99.90;;;;;;5094936;28;20021;-65
2022/06/14 03:19:23;;;;;;;12.90;3.80;;;15.30;99.90;;;;;;5094832;28;20023;-65
2022/06/14 03:21:57;;;;;;;7.57;3.15;;;15.30;99.90;;;;;;5094855;28;20453;-65
2022/06/14 03:24:44;;;;;;;11.23;3.50;;;15.30;99.90;;;;;;5094789;28;20028;-65
2022/06/14 03:27:23;;;;;;;9.85;3.85;;;15.20;99.90;;;;;;5094992;28;20160;-65
2022/06/14 03:30:14;;;;;;;6.60;3.10;;;15.20;99.90;;;;;;5094804;28;20438;-65
2022/06/14 03:33:05;;;;;;;6.68;2.97;;;15.20;99.90;;;;;;5094613;28;20039;-64
2022/06/14 03:35:35;;;;;;;6.20;3.00;;;15.10;99.90;;;;;;5094488;28;20081;-64
2022/06/14 03:38:14;;;;;;;6.03;3.17;;;15.10;99.90;;;;;;5095880;28;20422;-64
2022/06/14 03:40:45;;;;;;;6.57;3.33;;;15.10;99.90;;;;;;5095260;28;20111;-65
2022/06/14 03:43:12;;;;;;;5.82;3.60;;;15.10;99.90;;;;;;5095608;28;20553;-65
2022/06/14 03:45:59;;;;;;;8.43;3.58;;;15.00;99.90;;;;;;5095583;28;20384;-64
2022/06/14 03:48:26;;;;;;;5.47;3.10;;;15.00;99.90;;;;;;5095101;28;20024;-65
2022/06/14 03:51:19;;;;;;;8.13;3.47;;;14.80;99.90;;;;;;5094990;28;20024;-65
2022/06/14 03:53:56;;;;;;;5.95;3.35;;;14.60;99.90;;;;;;5095372;28;20127;-64
2022/06/14 03:56:48;;;;;;;8.07;4.05;;;14.30;99.90;;;;;;5095441;28;20468;-64
2022/06/14 03:59:27;;;;;;;12.05;4.22;;;14.20;99.90;;;;;;5096179;28;20038;-64
2022/06/14 04:02:56;;;;;;;9.45;3.70;;;14.30;99.90;;;;;;5077483;28;20027;-65
2022/06/14 04:05:32;;;;;;;12.82;5.47;;;14.20;99.90;;;;;;5071265;28;20100;-65
2022/06/14 04:08:25;;;;;;;10.65;3.90;;;14.10;99.90;;;;;;5094658;28;20034;-65
2022/06/14 04:11:14;;;;;;;8.55;3.97;;;14.10;99.90;;;;;;5076307;28;20028;-65
2022/06/14 04:13:58;;;;;;;8.38;3.72;;;14.20;99.90;;;;;;5094605;28;20031;-65
2022/06/14 04:16:40;;;;;;;5.03;3.63;;;14.20;99.90;;;;;;5095032;28;20031;-65
2022/06/14 04:19:06;;;;;;;12.45;4.43;;;14.20;99.90;;;;;;5095053;28;20057;-65
2022/06/14 04:21:39;;;;;;;7.20;3.33;;;14.10;99.90;;;;;;5095012;28;20028;-64
2022/06/14 04:24:23;;;;;;;5.68;3.60;;;14.20;99.90;;;;;;5094036;28;20457;-64
2022/06/14 04:27:18;;;;;;;8.18;3.85;;;14.20;99.90;;;;;;5093600;28;20431;-64
2022/06/14 04:30:01;;;;;;;5.72;3.42;;;14.30;99.90;;;;;;5093658;28;20020;-64
2022/06/14 04:32:54;;;;;;;8.43;4.95;;;14.30;99.90;;;;;;5093870;28;20392;-64
2022/06/14 04:35:30;;;;;;;5.15;3.40;;;14.30;99.90;;;;;;5093748;28;20024;-65
2022/06/14 04:38:08;;;;;;;7.28;3.63;;;14.30;99.90;;;;;;5093093;28;20028;-64
2022/06/14 04:40:43;;;;;;;10.77;4.00;;;14.30;99.90;;;;;;5093578;28;20032;-64
2022/06/14 04:43:13;;;;;;;6.38;3.53;;;14.20;99.90;;;;;;5075482;28;20337;-64
2022/06/14 04:46:07;;;;;;;8.18;3.97;;;14.20;99.90;;;;;;5093857;28;20028;-64
2022/06/14 04:48:55;;;;;;;7.50;3.70;;;14.30;99.90;;;;;;5093605;28;20016;-65
2022/06/14 04:51:33;;;;;;;6.60;3.28;;;14.30;99.90;;;;;;5075354;28;20467;-64
2022/06/14 04:54:12;;;;;;;8.73;3.25;;;14.40;99.90;;;;;;5093499;28;20028;-64
2022/06/14 04:56:46;;;;;;;8.98;3.58;;;14.50;99.90;;;;;;5093383;28;20077;-64
2022/06/14 04:59:22;;;;;;;7.50;3.53;;;14.40;99.90;;;;;;5093474;28;20048;-65
2022/06/14 05:01:52;;;;;;;9.17;3.90;;;14.40;99.90;;;;;;5075061;28;20024;-64
2022/06/14 05:04:46;;;;;;;8.48;3.90;;;14.40;99.90;;;;;;5093138;28;20699;-64
2022/06/14 05:07:36;;;;;;;10.23;4.28;;;14.40;99.90;;;;;;5092911;28;20485;-65
2022/06/14 05:10:24;;;;;;;11.63;4.53;;;14.40;99.90;;;;;;5093331;28;20021;-65
2022/06/14 05:12:59;;;;;;;9.77;3.47;;;14.40;99.90;;;;;;5075831;28;20095;-64
2022/06/14 05:15:38;;;;;;;9.35;3.85;;;14.50;99.90;;;;;;5092488;28;20114;-65
2022/06/14 05:18:10;;;;;;;8.35;3.53;;;14.50;99.90;;;;;;5093073;28;20016;-65
2022/06/14 05:20:46;;;;;;;10.00;3.88;;;14.60;99.90;;;;;;5092883;28;20111;-65
2022/06/14 05:23:33;;;;;;;7.57;3.50;;;14.70;99.90;;;;;;5093395;28;20028;-65
2022/06/14 05:26:07;;;;;;;7.43;3.58;;;14.80;99.90;;;;;;5093078;28;20128;-65
2022/06/14 05:28:38;;;;;;;7.50;3.80;;;14.80;99.90;;;;;;5093038;28;20024;-65
2022/06/14 05:31:16;;;;;;;7.65;3.88;;;14.80;99.90;;;;;;5093051;28;20081;-65
2022/06/14 05:33:53;;;;;;;10.30;3.70;;;14.90;99.90;;;;;;5093531;28;20052;-65
2022/06/14 05:36:28;;;;;;;8.40;4.00;;;14.90;99.90;;;;;;5092651;28;20028;-65
2022/06/14 05:38:59;;;;;;;6.90;3.33;;;15.00;99.90;;;;;;5092475;28;20047;-66
2022/06/14 05:41:41;;;;;;;7.35;4.15;;;15.00;99.90;;;;;;5092742;28;20460;-65
2022/06/14 05:44:12;;;;;;;9.65;3.97;;;15.10;99.90;;;;;;5092267;28;20036;-66
2022/06/14 05:46:53;;;;;;;9.27;4.03;;;15.10;99.90;;;;;;5091318;28;20388;-65
2022/06/14 05:49:24;;;;;;;11.73;3.85;;;15.10;99.90;;;;;;5092618;28;20016;-64
2022/06/14 05:52:06;;;;;;;7.05;4.30;;;15.20;99.90;;;;;;5093048;28;20013;-66
2022/06/14 05:54:57;;;;;;;7.93;4.00;;;15.30;99.90;;;;;;5093102;28;20089;-65
2022/06/14 05:57:31;;;;;;;8.18;3.60;;;15.40;99.90;;;;;;5092604;28;20055;-65
2022/06/14 06:00:06;;;;;;;10.50;3.83;;;15.50;99.90;;;;;;5092732;28;20066;-66
2022/06/14 06:02:38;;;;;;;11.10;3.95;;;15.60;99.90;;;;;;5093903;28;20119;-65
2022/06/14 06:05:21;;;;;;;8.18;3.90;;;15.70;99.90;;;;;;5093908;28;20479;-65
2022/06/14 06:07:59;;;;;;;10.25;3.50;;;15.70;99.90;;;;;;5076900;28;20028;-65
2022/06/14 06:10:31;;;;;;;6.95;3.40;;;15.70;99.90;;;;;;5094953;28;20038;-66
2022/06/14 06:13:01;;;;;;;9.35;3.40;;;15.80;99.90;;;;;;5094817;28;20028;-66
2022/06/14 06:15:33;;;;;;;5.28;3.22;;;15.90;99.90;;;;;;5094067;28;20373;-66
2022/06/14 06:18:06;;;;;;;6.97;3.22;;;16.00;99.90;;;;;;5094414;28;20028;-65
2022/06/14 06:20:37;;;;;;;8.20;3.75;;;16.10;99.90;;;;;;5094476;28;20028;-65
2022/06/14 06:23:06;;;;;;;7.68;3.15;;;16.20;99.90;;;;;;5094430;28;20342;-66
2022/06/14 06:25:39;;;;;;;8.98;3.15;;;16.30;99.90;;;;;;5075280;28;20031;-64
2022/06/14 06:28:08;;;;;;;7.65;3.25;;;16.40;99.90;;;;;;5095266;28;20024;-64
2022/06/14 06:30:42;;;;;;;10.57;3.03;;;16.60;99.90;;;;;;5097627;28;20091;-65
2022/06/14 06:33:12;;;;;;;11.35;3.75;;;16.60;99.90;;;;;;5097846;28;20024;-65
2022/06/14 06:36:02;;;;;;;8.27;3.00;;;16.70;99.90;;;;;;5097697;28;20564;-67
2022/06/14 06:38:49;;;;;;;7.65;2.83;;;16.70;99.90;;;;;;5065849;28;20496;-67
2022/06/14 06:44:07;;;;;;;7.10;3.53;;;17.00;99.90;;;;;;5096888;28;20031;-65
2022/06/14 06:46:41;;;;;;;14.50;3.65;;;17.10;99.90;;;;;;5097291;28;20016;-66
2022/06/14 06:49:12;;;;;;;8.82;3.13;;;17.20;99.90;;;;;;5097712;28;20062;-65
2022/06/14 06:51:47;;;;;;;8.98;3.40;;;17.30;99.90;;;;;;5078979;28;20477;-64
2022/06/14 06:54:24;;;;;;;8.07;3.08;;;17.30;99.90;;;;;;5097426;28;20039;-67
2022/06/14 06:56:58;;;;;;;5.35;2.83;;;17.40;99.90;;;;;;5078674;28;20111;-64
2022/06/14 06:59:35;;;;;;;9.02;2.63;;;17.60;99.90;;;;;;5096860;28;20021;-67
2022/06/14 07:02:10;;;;;;;4.80;2.78;;;17.80;99.90;;;;;;5096879;28;20028;-63
2022/06/14 07:07:40;;;;;;;6.03;2.75;;;17.90;99.90;;;;;;5096348;28;20141;-62
2022/06/14 07:10:29;;;;;;;4.50;2.50;;;18.00;99.90;;;;;;5077745;28;20503;-63
2022/06/14 07:12:59;;;;;;;5.43;2.60;;;18.10;99.90;;;;;;5095322;28;20115;-65
2022/06/14 07:15:33;;;;;;;6.50;2.78;;;18.20;99.90;;;;;;5096920;28;20099;-63
2022/06/14 07:18:46;;;;;;;5.40;2.78;;;18.30;99.30;;;;;;5096873;28;20031;-63
2022/06/14 07:21:26;;;;;;;6.53;2.45;;;18.40;98.90;;;;;;5090190;28;20044;-65
2022/06/14 07:24:08;;;;;;;6.43;2.67;;;18.60;99.50;;;;;;5095969;28;20106;-65
2022/06/14 07:26:37;;;;;;;5.05;2.60;;;18.70;98.30;;;;;;5096771;28;20500;-65
2022/06/14 07:29:18;;;;;;;8.05;2.47;;;18.90;98.00;;;;;;5096222;28;20020;-65
2022/06/14 07:31:55;;;;;;;6.65;2.50;;;19.10;98.30;;;;;;5096642;28;20020;-65
2022/06/14 07:34:22;;;;;;;5.10;2.50;;;19.20;98.30;;;;;;5095881;28;20020;-65
2022/06/14 07:37:11;;;;;;;6.78;2.88;;;19.30;98.00;;;;;;5095608;28;20046;-64
2022/06/14 07:39:57;;;;;;;15.25;3.42;;;19.30;97.80;;;;;;5094655;28;20115;-64
2022/06/14 07:42:48;;;;;;;5.40;2.50;;;19.50;97.90;;;;;;5095480;28;20028;-64
2022/06/14 07:45:46;;;;;;;7.07;2.50;;;20.30;96.70;;;;;;5095015;28;20024;-64
2022/06/14 07:48:30;;;;;;;6.72;2.50;;;22.00;94.20;;;;;;5091848;28;20029;-65
2022/06/14 07:51:25;;;;;;;6.10;2.88;;;24.00;90.90;;;;;;5095462;28;20526;-66
2022/06/14 07:53:55;;;;;;;4.20;2.47;;;25.20;85.90;;;;;;5095752;28;20028;-66
2022/06/14 07:56:26;;;;;;;6.28;2.50;;;25.60;83.60;;;;;;5094995;28;20068;-65
2022/06/14 07:59:02;;;;;;;7.15;2.35;;;24.90;83.80;;;;;;5095323;28;20059;-65
2022/06/14 08:01:57;;;;;;;7.60;2.60;;;24.10;82.50;;;;;;5095376;28;20024;-65
2022/06/14 08:04:34;;;;;;;5.35;2.60;;;23.80;83.40;;;;;;5095513;28;20077;-65
2022/06/14 08:07:11;;;;;;;;;;;24.30;83.20;;;;;;5094725;28;20047;-65
2022/06/14 08:10:13;;;;;;;7.47;2.63;;;25.70;80.60;;;;;;5094583;28;19908;-65
2022/06/14 08:12:46;;;;;;;5.30;2.25;;;27.40;74.10;;;;;;5031845;28;20398;-65
2022/06/14 08:15:20;;;;;;;5.57;2.33;;;29.20;70.80;;;;;;5031769;28;20414;-65
2022/06/14 08:17:59;;;;;;;10.38;2.42;;;29.90;67.00;;;;;;5031456;28;20058;-65
2022/06/14 08:20:32;;;;;;;5.65;2.20;;;30.30;65.60;;;;;;5033287;28;20028;-66
2022/06/14 08:23:03;;;;;;;6.75;2.45;;;29.90;62.80;;;;;;5016904;28;20045;-65
2022/06/14 08:25:34;;;;;;;5.20;2.75;;;29.40;63.30;;;;;;5031624;28;20021;-65
2022/06/14 08:28:30;;;;;;;6.50;2.33;;;29.20;63.30;;;;;;5031789;28;20157;-65
2022/06/14 08:31:06;;;;;;;5.45;2.67;;;30.10;62.20;;;;;;5030825;28;20120;-65
2022/06/14 08:33:43;;;;;;;6.55;2.83;;;31.40;60.00;;;;;;5031260;28;20538;-65
2022/06/14 08:36:16;;;;;;;8.52;1.90;;;30.70;60.00;;;;;;5031391;28;20092;-65
2022/06/14 08:38:50;;;;;;;7.13;2.70;;;31.20;58.70;;;;;;5031519;28;20038;-65
2022/06/14 08:41:49;;;;;;;5.80;2.50;;;32.30;57.80;;;;;;5031289;28;20530;-65
2022/06/14 08:44:21;;;;;;;6.40;2.38;;;33.30;56.00;;;;;;5031268;28;20033;-65
2022/06/14 08:47:27;;;;;;;5.47;2.38;;;32.10;56.20;;;;;;5031669;28;20079;-65
2022/06/14 08:50:02;;;;;;;6.35;2.30;;;32.20;56.30;;;;;;5075286;28;20020;-65
2022/06/14 08:53:03;;;;;;;4.70;2.38;;;32.70;55.70;;;;;;5093386;28;20031;-65
2022/06/14 08:55:56;;;;;;;5.85;2.67;;;31.90;55.60;;;;;;5093885;28;20396;-64
2022/06/14 08:58:49;;;;;;;5.05;2.38;;;31.70;54.90;;;;;;5093766;28;20046;-64
2022/06/14 09:01:15;;;;;;;5.78;2.72;;;31.30;55.70;;;;;;5093469;28;20058;-64
2022/06/14 09:03:53;;;;;;;6.13;2.60;;;32.00;55.80;;;;;;5093134;28;20489;-65
2022/06/14 09:06:40;;;;;;;5.82;2.60;;;33.20;54.00;;;;;;5075400;28;20101;-64
2022/06/14 09:09:23;;;;;;;5.30;2.58;;;34.20;53.10;;;;;;5093472;28;20069;-64
2022/06/14 09:11:48;;;;;;;5.43;2.40;;;33.20;54.30;;;;;;5093271;28;20108;-64
2022/06/14 09:15:02;;;;;;;8.98;2.78;;;34.30;52.50;;;;;;5093219;28;20052;-64
2022/06/14 09:18:05;;;;;;;6.15;2.92;;;34.90;52.10;;;;;;5087764;28;20097;-65
2022/06/14 09:20:38;;;;;;;6.05;2.75;;;33.30;52.00;;;;;;5093179;28;20020;-64
2022/06/14 09:23:32;;;;;;;7.63;2.47;;;31.70;54.10;;;;;;5093137;28;20045;-65
2022/06/14 09:26:17;;;;;;;7.05;2.92;;;32.30;54.00;;;;;;5094165;28;20024;-65
2022/06/14 09:28:42;;;;;;;8.68;3.33;;;33.80;52.30;;;;;;5093868;28;20103;-65
2022/06/14 09:31:45;;;;;;;6.25;2.40;;;33.60;52.00;;;;;;5093183;28;20059;-65
2022/06/14 09:34:38;;;;;;;7.20;2.70;;;31.30;54.00;;;;;;5092716;28;20451;-65
2022/06/14 09:37:34;;;;;;;7.28;2.60;;;31.60;54.20;;;;;;5093034;28;20074;-65
2022/06/14 09:40:33;;;;;;;6.22;2.55;;;31.80;54.50;;;;;;5093223;28;20020;-65
2022/06/14 09:43:08;;;;;;;6.72;2.97;;;33.60;53.50;;;;;;5092705;28;20024;-64
2022/06/14 09:46:09;;;;;;;4.78;2.25;;;34.90;51.10;;;;;;5093006;28;20028;-65
2022/06/14 09:49:22;;;;;;;6.03;2.20;;;35.10;51.80;;;;;;5092607;28;20036;-64
2022/06/14 09:52:13;;;;;;;7.50;2.40;;;33.40;51.10;;;;;;5092604;28;20025;-65
2022/06/14 09:54:50;;;;;;;4.30;2.20;;;32.80;51.90;;;;;;5093185;28;20054;-65
2022/06/14 09:57:39;;;;;;;5.50;2.60;;;31.90;52.50;;;;;;5092686;28;20473;-63
2022/06/14 10:00:14;;;;;;;5.82;2.60;;;31.80;52.90;;;;;;5092608;28;20028;-64
2022/06/14 10:02:49;;;;;;;5.88;2.25;;;31.70;52.40;;;;;;5095646;28;20512;-65
2022/06/14 10:05:43;;;;;;;7.05;2.50;;;32.00;52.60;;;;;;5096478;28;20043;-65
2022/06/14 10:08:32;;;;;;;7.82;2.63;;;33.60;51.90;;;;;;5096384;28;20059;-66
2022/06/14 10:11:15;;;;;;;7.03;2.92;;;33.20;51.50;;;;;;5096621;28;20024;-66
2022/06/14 10:14:08;;;;;;;6.32;2.33;;;34.30;51.20;;;;;;5096121;28;20024;-66
2022/06/14 10:16:51;;;;;;;4.75;2.40;;;35.30;50.30;;;;;;5096233;28;20031;-66
2022/06/14 10:19:22;;;;;;;9.57;2.40;;;36.40;48.90;;;;;;5096046;28;20031;-65
2022/06/14 10:22:06;;;;;;;3.75;2.30;;;37.60;48.40;;;;;;5096174;28;20031;-65
2022/06/14 10:24:40;;;;;;;4.78;2.70;;;34.90;48.80;;;;;;5095957;28;20069;-65
2022/06/14 10:30:05;;;;;;;4.18;2.40;;;35.70;47.60;;;;;;5096360;28;20396;-65
2022/06/14 10:33:18;;;;;;;4.75;2.70;;;35.10;49.00;;;;;;5095947;28;20436;-65
2022/06/14 10:35:50;;;;;;;5.85;2.60;;;35.50;48.60;;;;;;5033342;28;20127;-65
2022/06/14 10:38:43;;;;;;;6.72;2.58;;;35.30;49.10;;;;;;5033546;28;20030;-65
2022/06/14 10:41:20;;;;;;;5.30;2.60;;;35.40;48.50;;;;;;5034092;28;20498;-64
2022/06/14 10:44:25;;;;;;;9.07;2.45;;;34.50;49.30;;;;;;5033312;28;20034;-67
2022/06/14 10:47:20;;;;;;;6.63;2.30;;;34.70;48.20;;;;;;5019747;28;20061;-65
2022/06/14 10:50:12;;;;;;;5.65;2.50;;;34.70;48.60;;;;;;5033490;28;20099;-66
2022/06/14 10:52:46;;;;;;;4.07;2.40;;;32.90;50.10;;;;;;5033136;28;20495;-65
2022/06/14 10:55:37;;;;;;;4.32;2.60;;;31.80;51.20;;;;;;5033388;28;20029;-64
2022/06/14 10:58:49;;;;;;;7.85;2.85;;;31.10;51.70;;;;;;5033504;28;20060;-66
2022/06/14 11:01:20;;;;;;;9.52;2.50;;;30.60;52.20;;;;;;5033442;28;20168;-65
2022/06/14 11:04:12;;;;;;;6.57;2.58;;;31.10;52.20;;;;;;5033750;28;20479;-65
2022/06/14 11:07:07;;;;;;;4.95;2.30;;;31.60;51.40;;;;;;5067065;28;20519;-65
2022/06/14 11:10:19;;;;;;;5.88;2.42;;;31.60;50.60;;;;;;5095455;28;20024;-66
2022/06/14 11:13:04;;;;;;;4.40;2.22;;;30.50;51.50;;;;;;5094985;28;20099;-65
2022/06/14 11:15:52;;;;;;;6.43;2.80;;;29.10;53.30;;;;;;5094876;28;20024;-65
2022/06/14 11:18:42;;;;;;;8.23;2.50;;;28.20;55.30;;;;;;5095235;28;20549;-64
2022/06/14 11:21:30;;;;;;;7.32;2.97;;;27.90;55.80;;;;;;5095347;28;20039;-66
2022/06/14 11:24:07;;;;;;;4.72;2.90;;;27.60;55.80;;;;;;5077353;28;20026;-65
2022/06/14 11:27:09;;;;;;;7.60;2.58;;;27.20;56.10;;;;;;5094652;28;20024;-66
2022/06/14 11:30:15;;;;;;;5.40;2.67;;;26.40;55.20;;;;;;5095524;28;20432;-66
2022/06/14 11:33:22;;;;;;;4.50;2.47;;;26.30;55.40;;;;;;5032735;28;20091;-65
2022/06/14 11:36:11;;;;;;;7.88;2.50;;;25.90;55.80;;;;;;5022226;28;20053;-65
2022/06/14 11:39:10;;;;;;;4.10;2.55;;;25.70;56.20;;;;;;5022130;28;20038;-64
2022/06/14 11:41:44;;;;;;;4.93;2.20;;;25.70;55.90;;;;;;5001797;28;20556;-64
2022/06/14 11:44:21;;;;;;;5.30;2.60;;;25.70;56.60;;;;;;5032296;28;20044;-64
2022/06/14 11:47:30;;;;;;;11.23;5.07;;;25.60;57.00;;;;;;5032246;28;20053;-65
2022/06/14 11:50:05;;;;;;;6.28;3.03;;;25.60;56.90;;;;;;5018566;28;20029;-64
2022/06/14 11:52:33;;;;;;;5.45;2.92;;;25.90;57.00;;;;;;5032417;28;20033;-66
2022/06/14 11:55:16;;;;;;;4.88;2.83;;;26.20;56.80;;;;;;5032082;28;20510;-65
2022/06/14 11:58:10;;;;;;;3.83;2.25;;;26.40;56.40;;;;;;5032163;28;20113;-65
2022/06/14 12:00:57;;;;;;;7.28;2.08;;;26.20;55.80;;;;;;5031709;28;20124;-64
2022/06/14 12:03:54;;;;;;;6.78;2.10;;;25.90;55.80;;;;;;5061493;28;20393;-66
2022/06/14 12:06:29;;;;;;;4.47;2.35;;;25.90;55.90;;;;;;5070204;28;20060;-65
2022/06/14 12:09:09;;;;;;;6.55;2.40;;;25.70;56.60;;;;;;5094187;28;20465;-65
2022/06/14 12:11:59;;;;;;;4.70;2.50;;;25.60;56.80;;;;;;5094346;28;20032;-64
2022/06/14 12:14:55;;;;;;;6.40;2.30;;;25.50;56.70;;;;;;5094116;28;20020;-65
2022/06/14 12:17:45;;;;;;;5.53;2.30;;;25.50;57.30;;;;;;5093711;28;20038;-66
2022/06/14 12:20:15;;;;;;;5.63;2.40;;;25.60;56.60;;;;;;5094072;28;20024;-65
2022/06/14 12:22:52;;;;;;;9.27;3.05;;;25.70;56.40;;;;;;5093857;28;20107;-65
2022/06/14 12:28:22;;;;;;;6.20;2.40;;;25.80;56.70;;;;;;5093755;28;20039;-66
2022/06/14 12:30:50;;;;;;;7.78;2.30;;;25.80;56.60;;;;;;5093811;28;20058;-66
2022/06/14 12:33:29;;;;;;;4.80;2.30;;;25.80;55.50;;;;;;5093622;28;20054;-66
2022/06/14 12:36:06;;;;;;;3.05;2.40;;;25.80;56.00;;;;;;5093845;28;20370;-65
2022/06/14 12:38:37;;;;;;;4.78;2.20;;;25.80;56.90;;;;;;5093898;28;20157;-65
2022/06/14 12:41:27;;;;;;;7.30;2.95;;;25.80;57.50;;;;;;5093859;28;20098;-65
2022/06/14 12:44:04;;;;;;;5.97;2.45;;;25.60;57.50;;;;;;5075526;28;20024;-65
2022/06/14 12:46:35;;;;;;;8.70;2.50;;;25.60;56.90;;;;;;5075249;28;20366;-64
2022/06/14 12:49:03;;;;;;;5.80;2.30;;;25.50;56.70;;;;;;5093774;28;20020;-64
2022/06/14 12:51:56;;;;;;;5.35;2.50;;;25.50;56.20;;;;;;5093674;28;20023;-64
2022/06/14 12:54:32;;;;;;;5.45;2.40;;;25.50;56.50;;;;;;5093737;28;20131;-65
2022/06/14 12:57:22;;;;;;;4.78;2.20;;;25.50;56.80;;;;;;5093530;28;20139;-65
2022/06/14 13:00:27;;;;;;;4.95;2.65;;;25.50;57.00;;;;;;5084742;28;20489;-65
2022/06/14 13:03:14;;;;;;;5.80;2.50;;;25.60;56.30;;;;;;5073495;28;20071;-65
2022/06/14 13:05:43;;;;;;;;;;;25.70;56.00;;;;;;5094366;28;20032;-65
2022/06/14 13:08:24;;;;;;;10.63;2.78;;;25.60;55.70;;;;;;5094281;28;19904;-65
2022/06/14 13:11:14;;;;;;;5.10;2.70;;;25.60;56.40;;;;;;5093663;28;20020;-65
2022/06/14 13:13:48;;;;;;;5.05;2.45;;;25.70;56.50;;;;;;5093832;28;20024;-65
2022/06/14 13:16:44;;;;;;;5.47;2.70;;;25.70;56.80;;;;;;5093617;28;20045;-65
2022/06/14 13:19:28;;;;;;;6.40;2.33;;;25.90;57.30;;;;;;5075738;28;20025;-64
2022/06/14 13:22:24;;;;;;;8.30;2.42;;;26.00;57.00;;;;;;5095270;28;20095;-64
2022/06/14 13:25:15;;;;;;;5.47;2.20;;;26.00;56.50;;;;;;5093231;28;20020;-64
2022/06/14 13:27:51;;;;;;;5.60;2.17;;;26.00;56.60;;;;;;5093838;28;20098;-65
2022/06/14 13:30:26;;;;;;;4.50;2.40;;;26.00;56.40;;;;;;5093941;28;20024;-65
2022/06/14 13:33:05;;;;;;;5.88;2.25;;;26.10;56.70;;;;;;5095101;28;20032;-65
2022/06/14 13:35:43;;;;;;;7.07;2.58;;;26.30;57.20;;;;;;5093660;28;20020;-65
2022/06/14 13:38:25;;;;;;;9.10;2.72;;;26.30;57.20;;;;;;5096991;28;20020;-65
2022/06/14 13:40:57;;;;;;;5.07;2.65;;;26.20;56.80;;;;;;5078754;28;20054;-65
2022/06/14 13:43:38;;;;;;;5.78;2.50;;;26.30;57.10;;;;;;5097489;28;20580;-65
2022/06/14 13:46:22;;;;;;;5.72;2.70;;;26.40;56.80;;;;;;5097314;28;20499;-66
2022/06/14 13:48:57;;;;;;;4.93;2.63;;;26.40;57.30;;;;;;5097225;28;20027;-66
2022/06/14 13:51:41;;;;;;;4.47;2.30;;;26.30;57.50;;;;;;5096678;28;20046;-66
2022/06/14 13:54:20;;;;;;;7.93;2.80;;;26.40;57.20;;;;;;5096767;28;20035;-66
2022/06/14 13:57:16;;;;;;;6.70;2.45;;;26.40;56.40;;;;;;5096882;28;20028;-66
2022/06/14 13:59:46;;;;;;;4.68;2.40;;;26.40;56.40;;;;;;5096544;28;20099;-67
2022/06/14 14:02:35;;;;;;;4.30;1.98;;;26.40;56.30;;;;;;5096746;28;20028;-66
2022/06/14 14:05:14;;;;;;;7.88;2.65;;;26.50;56.10;;;;;;5096829;28;20012;-66
2022/06/14 14:08:11;;;;;;;7.05;2.53;;;26.50;56.10;;;;;;5096368;28;20028;-66
2022/06/14 14:10:55;;;;;;;6.20;2.42;;;26.40;56.50;;;;;;5100511;28;20027;-67
2022/06/14 14:13:34;;;;;;;10.48;2.47;;;26.40;56.40;;;;;;5099736;28;20117;-66
2022/06/14 14:16:19;;;;;;;3.67;2.45;;;26.40;56.10;;;;;;5096938;28;20032;-66